sensor_id;sensor_type;location;lat;lon;timestamp;temperature;humidity
37086;DHT22;23001;45.952;12.676;2023-07-20T00:02:19;23.60;99.90
37086;DHT22;23001;45.952;12.676;2023-07-20T00:08:03;23.50;99.90
37086;DHT22;23001;45.952;12.676;2023-07-20T00:13:24;23.60;99.90
37086;DHT22;23001;45.952;12.676;2023-07-20T00:19:26;23.70;99.90
37086;DHT22;23001;45.952;12.676;2023-07-20T00:22:07;23.70;99.90
37086;DHT22;23001;45.952;12.676;2023-07-20T00:24:46;23.60;99.90
37086;DHT22;23001;45.952;12.676;2023-07-20T00:27:26;23.60;99.90
37086;DHT22;23001;45.952;12.676;2023-07-20T00:29:52;23.70;99.90
37086;DHT22;23001;45.952;12.676;2023-07-20T00:32:18;23.70;99.90
37086;DHT22;23001;45.952;12.676;2023-07-20T00:34:44;23.50;99.90
37086;DHT22;23001;45.952;12.676;2023-07-20T00:37:15;23.50;99.90
37086;DHT22;23001;45.952;12.676;2023-07-20T00:40:02;23.40;99.90
37086;DHT22;23001;45.952;12.676;2023-07-20T00:42:35;23.40;99.90
37086;DHT22;23001;45.952;12.676;2023-07-20T00:45:01;23.40;99.90
37086;DHT22;23001;45.952;12.676;2023-07-20T00:47:27;23.40;99.90
37086;DHT22;23001;45.952;12.676;2023-07-20T00:49:59;23.30;99.90
37086;DHT22;23001;45.952;12.676;2023-07-20T00:52:45;23.20;99.90
37086;DHT22;23001;45.952;12.676;2023-07-20T00:55:19;23.20;99.90
37086;DHT22;23001;45.952;12.676;2023-07-20T01:00:57;23.20;99.90
37086;DHT22;23001;45.952;12.676;2023-07-20T01:03:23;23.30;99.90
37086;DHT22;23001;45.952;12.676;2023-07-20T03:16:52;23.20;99.90
37086;DHT22;23001;45.952;12.676;2023-07-20T03:19:18;23.20;99.90
37086;DHT22;23001;45.952;12.676;2023-07-20T03:21:46;23.20;99.90
37086;DHT22;23001;45.952;12.676;2023-07-20T03:24:12;23.20;99.90
37086;DHT22;23001;45.952;12.676;2023-07-20T03:26:40;23.20;99.90
37086;DHT22;23001;45.952;12.676;2023-07-20T03:29:12;23.10;99.90
37086;DHT22;23001;45.952;12.676;2023-07-20T03:31:41;23.20;99.90
37086;DHT22;23001;45.952;12.676;2023-07-20T03:34:08;23.10;99.90
37086;DHT22;23001;45.952;12.676;2023-07-20T03:36:34;23.10;99.90
37086;DHT22;23001;45.952;12.676;2023-07-20T03:39:00;23.00;99.90
37086;DHT22;23001;45.952;12.676;2023-07-20T03:41:29;23.10;99.90
37086;DHT22;23001;45.952;12.676;2023-07-20T03:43:55;23.00;99.90
37086;DHT22;23001;45.952;12.676;2023-07-20T03:46:21;23.10;99.90
37086;DHT22;23001;45.952;12.676;2023-07-20T03:48:49;23.10;99.90
37086;DHT22;23001;45.952;12.676;2023-07-20T03:51:15;23.10;99.90
37086;DHT22;23001;45.952;12.676;2023-07-20T03:53:40;23.10;99.90
37086;DHT22;23001;45.952;12.676;2023-07-20T03:56:06;23.10;99.90
37086;DHT22;23001;45.952;12.676;2023-07-20T04:01:31;23.00;99.90
37086;DHT22;23001;45.952;12.676;2023-07-20T04:04:04;23.00;99.90
37086;DHT22;23001;45.952;12.676;2023-07-20T04:06:32;23.00;99.90
37086;DHT22;23001;45.952;12.676;2023-07-20T04:08:58;23.10;99.90
37086;DHT22;23001;45.952;12.676;2023-07-20T04:11:23;23.10;99.90
37086;DHT22;23001;45.952;12.676;2023-07-20T04:13:49;23.10;99.90
37086;DHT22;23001;45.952;12.676;2023-07-20T04:16:15;23.10;99.90
37086;DHT22;23001;45.952;12.676;2023-07-20T04:18:40;23.10;99.90
37086;DHT22;23001;45.952;12.676;2023-07-20T04:21:07;23.10;99.90
37086;DHT22;23001;45.952;12.676;2023-07-20T04:23:36;23.10;99.90
37086;DHT22;23001;45.952;12.676;2023-07-20T04:26:02;23.20;99.90
37086;DHT22;23001;45.952;12.676;2023-07-20T04:28:27;23.20;99.90
37086;DHT22;23001;45.952;12.676;2023-07-20T04:30:53;23.20;99.90
37086;DHT22;23001;45.952;12.676;2023-07-20T04:33:19;23.00;99.90
37086;DHT22;23001;45.952;12.676;2023-07-20T04:38:10;22.90;99.90
37086;DHT22;23001;45.952;12.676;2023-07-20T04:40:36;23.00;99.90
37086;DHT22;23001;45.952;12.676;2023-07-20T04:43:07;23.00;99.90
37086;DHT22;23001;45.952;12.676;2023-07-20T04:45:35;23.00;99.90
37086;DHT22;23001;45.952;12.676;2023-07-20T04:48:01;22.90;99.90
37086;DHT22;23001;45.952;12.676;2023-07-20T04:50:27;23.00;99.90
37086;DHT22;23001;45.952;12.676;2023-07-20T04:52:53;23.00;99.90
37086;DHT22;23001;45.952;12.676;2023-07-20T04:55:19;22.90;99.90
37086;DHT22;23001;45.952;12.676;2023-07-20T04:57:46;22.90;99.90
37086;DHT22;23001;45.952;12.676;2023-07-20T05:02:58;22.90;99.90
37086;DHT22;23001;45.952;12.676;2023-07-20T05:14:21;22.90;99.90
37086;DHT22;23001;45.952;12.676;2023-07-20T05:35:16;23.30;99.90
37086;DHT22;23001;45.952;12.676;2023-07-20T05:37:42;23.50;99.90
37086;DHT22;23001;45.952;12.676;2023-07-20T05:40:11;23.70;99.90
37086;DHT22;23001;45.952;12.676;2023-07-20T05:45:22;24.40;99.90
37086;DHT22;23001;45.952;12.676;2023-07-20T05:47:48;24.90;99.90
37086;DHT22;23001;45.952;12.676;2023-07-20T05:50:14;25.00;99.90
37086;DHT22;23001;45.952;12.676;2023-07-20T05:52:39;24.80;99.90
37086;DHT22;23001;45.952;12.676;2023-07-20T05:55:39;24.80;99.90
37086;DHT22;23001;45.952;12.676;2023-07-20T06:04:32;25.60;99.90
37086;DHT22;23001;45.952;12.676;2023-07-20T06:10:32;24.90;99.90
37086;DHT22;23001;45.952;12.676;2023-07-20T06:13:04;25.10;99.90
37086;DHT22;23001;45.952;12.676;2023-07-20T06:16:04;25.10;99.90
37086;DHT22;23001;45.952;12.676;2023-07-20T06:18:52;25.50;99.90
37086;DHT22;23001;45.952;12.676;2023-07-20T06:21:18;26.30;99.90
37086;DHT22;23001;45.952;12.676;2023-07-20T06:23:47;27.20;99.90
37086;DHT22;23001;45.952;12.676;2023-07-20T06:26:25;26.70;99.90
37086;DHT22;23001;45.952;12.676;2023-07-20T06:28:54;26.90;99.90
37086;DHT22;23001;45.952;12.676;2023-07-20T06:34:25;27.10;99.90
37086;DHT22;23001;45.952;12.676;2023-07-20T06:43:24;26.60;99.90
37086;DHT22;23001;45.952;12.676;2023-07-20T07:04:27;27.90;99.90
37086;DHT22;23001;45.952;12.676;2023-07-20T07:06:56;28.00;99.90
37086;DHT22;23001;45.952;12.676;2023-07-20T07:18:06;28.20;99.90
37086;DHT22;23001;45.952;12.676;2023-07-20T07:20:32;29.10;99.90
37086;DHT22;23001;45.952;12.676;2023-07-20T07:23:00;29.70;99.90
37086;DHT22;23001;45.952;12.676;2023-07-20T07:25:29;29.70;99.90
37086;DHT22;23001;45.952;12.676;2023-07-20T07:28:06;29.10;99.90
37086;DHT22;23001;45.952;12.676;2023-07-20T07:30:32;29.70;99.90
37086;DHT22;23001;45.952;12.676;2023-07-20T07:32:57;30.00;99.90
37086;DHT22;23001;45.952;12.676;2023-07-20T07:35:26;30.40;98.80
37086;DHT22;23001;45.952;12.676;2023-07-20T07:38:01;30.30;99.00
37086;DHT22;23001;45.952;12.676;2023-07-20T07:40:43;30.50;98.50
37086;DHT22;23001;45.952;12.676;2023-07-20T07:43:09;30.70;97.40
37086;DHT22;23001;45.952;12.676;2023-07-20T07:45:34;30.70;96.50
37086;DHT22;23001;45.952;12.676;2023-07-20T07:48:03;30.70;96.40
37086;DHT22;23001;45.952;12.676;2023-07-20T07:50:29;30.50;98.10
37086;DHT22;23001;45.952;12.676;2023-07-20T07:52:57;29.60;97.30
37086;DHT22;23001;45.952;12.676;2023-07-20T07:55:26;28.80;98.10
37086;DHT22;23001;45.952;12.676;2023-07-20T07:57:57;29.50;98.00
37086;DHT22;23001;45.952;12.676;2023-07-20T08:00:52;30.20;97.70
37086;DHT22;23001;45.952;12.676;2023-07-20T08:03:23;30.50;96.80
37086;DHT22;23001;45.952;12.676;2023-07-20T08:05:53;31.00;96.70
37086;DHT22;23001;45.952;12.676;2023-07-20T08:08:18;31.10;96.80
37086;DHT22;23001;45.952;12.676;2023-07-20T08:13:46;31.00;95.40
37086;DHT22;23001;45.952;12.676;2023-07-20T08:16:26;31.10;96.60
37086;DHT22;23001;45.952;12.676;2023-07-20T08:25:07;30.80;96.60
37086;DHT22;23001;45.952;12.676;2023-07-20T08:27:33;30.70;97.20
37086;DHT22;23001;45.952;12.676;2023-07-20T08:30:08;30.90;96.10
37086;DHT22;23001;45.952;12.676;2023-07-20T08:32:55;31.20;97.30
37086;DHT22;23001;45.952;12.676;2023-07-20T08:35:29;31.00;96.50
37086;DHT22;23001;45.952;12.676;2023-07-20T08:40:52;30.80;96.90
37086;DHT22;23001;45.952;12.676;2023-07-20T08:43:26;30.80;96.90
37086;DHT22;23001;45.952;12.676;2023-07-20T08:46:14;31.00;96.20
37086;DHT22;23001;45.952;12.676;2023-07-20T08:49:00;31.00;97.00
37086;DHT22;23001;45.952;12.676;2023-07-20T08:51:30;30.90;97.90
37086;DHT22;23001;45.952;12.676;2023-07-20T08:53:56;30.50;95.80
37086;DHT22;23001;45.952;12.676;2023-07-20T08:56:33;30.60;96.10
37086;DHT22;23001;45.952;12.676;2023-07-20T08:59:08;30.60;96.40
37086;DHT22;23001;45.952;12.676;2023-07-20T09:01:37;30.80;97.00
37086;DHT22;23001;45.952;12.676;2023-07-20T09:04:04;30.90;96.70
37086;DHT22;23001;45.952;12.676;2023-07-20T09:06:35;31.10;95.80
37086;DHT22;23001;45.952;12.676;2023-07-20T09:09:02;31.00;95.50
37086;DHT22;23001;45.952;12.676;2023-07-20T09:11:31;31.10;97.00
37086;DHT22;23001;45.952;12.676;2023-07-20T09:14:13;31.00;95.10
37086;DHT22;23001;45.952;12.676;2023-07-20T09:16:59;30.80;95.10
37086;DHT22;23001;45.952;12.676;2023-07-20T09:22:37;30.90;95.30
37086;DHT22;23001;45.952;12.676;2023-07-20T09:25:17;30.70;95.70
37086;DHT22;23001;45.952;12.676;2023-07-20T09:27:44;30.70;94.90
37086;DHT22;23001;45.952;12.676;2023-07-20T09:30:13;30.70;95.30
37086;DHT22;23001;45.952;12.676;2023-07-20T09:32:58;30.70;95.60
37086;DHT22;23001;45.952;12.676;2023-07-20T09:35:27;30.70;94.40
37086;DHT22;23001;45.952;12.676;2023-07-20T09:37:59;30.70;95.00
37086;DHT22;23001;45.952;12.676;2023-07-20T09:40:28;30.70;95.40
37086;DHT22;23001;45.952;12.676;2023-07-20T09:42:58;30.70;96.10
37086;DHT22;23001;45.952;12.676;2023-07-20T09:45:31;30.90;95.60
37086;DHT22;23001;45.952;12.676;2023-07-20T09:48:05;30.90;95.70
37086;DHT22;23001;45.952;12.676;2023-07-20T09:50:48;31.00;95.90
37086;DHT22;23001;45.952;12.676;2023-07-20T09:56:26;31.00;95.40
37086;DHT22;23001;45.952;12.676;2023-07-20T09:58:52;30.90;95.10
37086;DHT22;23001;45.952;12.676;2023-07-20T10:01:21;31.00;95.40
37086;DHT22;23001;45.952;12.676;2023-07-20T10:03:51;31.00;95.10
37086;DHT22;23001;45.952;12.676;2023-07-20T10:06:20;31.00;95.70
37086;DHT22;23001;45.952;12.676;2023-07-20T10:08:48;30.90;95.10
37086;DHT22;23001;45.952;12.676;2023-07-20T10:11:15;31.10;97.00
37086;DHT22;23001;45.952;12.676;2023-07-20T10:13:44;31.20;96.60
37086;DHT22;23001;45.952;12.676;2023-07-20T10:16:12;31.20;95.20
37086;DHT22;23001;45.952;12.676;2023-07-20T10:21:27;31.00;95.10
37086;DHT22;23001;45.952;12.676;2023-07-20T10:23:59;30.90;95.00
37086;DHT22;23001;45.952;12.676;2023-07-20T10:26:32;31.00;95.30
37086;DHT22;23001;45.952;12.676;2023-07-20T10:29:01;31.10;96.00
37086;DHT22;23001;45.952;12.676;2023-07-20T11:41:50;32.10;92.90
37086;DHT22;23001;45.952;12.676;2023-07-20T11:44:19;32.10;93.20
37086;DHT22;23001;45.952;12.676;2023-07-20T11:50:20;32.00;93.70
37086;DHT22;23001;45.952;12.676;2023-07-20T11:56:07;32.10;92.30
37086;DHT22;23001;45.952;12.676;2023-07-20T12:05:08;32.20;91.80
37086;DHT22;23001;45.952;12.676;2023-07-20T12:17:19;32.40;92.10
37086;DHT22;23001;45.952;12.676;2023-07-20T12:26:04;32.70;92.10
37086;DHT22;23001;45.952;12.676;2023-07-20T12:29:18;32.50;92.10
37086;DHT22;23001;45.952;12.676;2023-07-20T12:38:14;32.60;92.20
37086;DHT22;23001;45.952;12.676;2023-07-20T12:41:15;32.70;92.80
37086;DHT22;23001;45.952;12.676;2023-07-20T12:43:49;32.70;92.40
37086;DHT22;23001;45.952;12.676;2023-07-20T12:46:35;32.70;93.00
37086;DHT22;23001;45.952;12.676;2023-07-20T12:49:40;32.40;92.00
37086;DHT22;23001;45.952;12.676;2023-07-20T12:52:23;32.40;92.70
37086;DHT22;23001;45.952;12.676;2023-07-20T12:55:22;32.40;92.80
37086;DHT22;23001;45.952;12.676;2023-07-20T13:08:00;32.30;92.20
37086;DHT22;23001;45.952;12.676;2023-07-20T13:10:27;32.20;92.40
37086;DHT22;23001;45.952;12.676;2023-07-20T13:13:02;32.40;91.30
37086;DHT22;23001;45.952;12.676;2023-07-20T13:15:56;32.50;92.00
37086;DHT22;23001;45.952;12.676;2023-07-20T13:18:25;32.60;92.60
37086;DHT22;23001;45.952;12.676;2023-07-20T13:20:54;32.50;92.00
37086;DHT22;23001;45.952;12.676;2023-07-20T13:23:25;32.40;92.00
37086;DHT22;23001;45.952;12.676;2023-07-20T13:25:59;32.20;92.40
37086;DHT22;23001;45.952;12.676;2023-07-20T13:28:50;32.20;92.10
37086;DHT22;23001;45.952;12.676;2023-07-20T13:38:14;32.30;92.60
37086;DHT22;23001;45.952;12.676;2023-07-20T13:41:06;32.40;92.90
37086;DHT22;23001;45.952;12.676;2023-07-20T13:43:53;32.40;92.00
37086;DHT22;23001;45.952;12.676;2023-07-20T13:49:46;32.60;91.90
37086;DHT22;23001;45.952;12.676;2023-07-20T13:52:38;32.50;92.80
37086;DHT22;23001;45.952;12.676;2023-07-20T13:55:06;32.40;92.20
37086;DHT22;23001;45.952;12.676;2023-07-20T13:57:43;32.30;91.50
37086;DHT22;23001;45.952;12.676;2023-07-20T14:03:37;32.60;92.90
37086;DHT22;23001;45.952;12.676;2023-07-20T14:06:11;32.50;92.50
37086;DHT22;23001;45.952;12.676;2023-07-20T14:12:02;32.50;92.60
37086;DHT22;23001;45.952;12.676;2023-07-20T14:14:38;32.50;92.30
37086;DHT22;23001;45.952;12.676;2023-07-20T14:17:09;32.60;91.80
37086;DHT22;23001;45.952;12.676;2023-07-20T14:19:59;32.40;92.50
37086;DHT22;23001;45.952;12.676;2023-07-20T14:22:41;32.40;92.30
37086;DHT22;23001;45.952;12.676;2023-07-20T14:25:07;32.40;92.10
37086;DHT22;23001;45.952;12.676;2023-07-20T14:27:39;32.40;92.50
37086;DHT22;23001;45.952;12.676;2023-07-20T14:33:13;32.40;92.30
37086;DHT22;23001;45.952;12.676;2023-07-20T14:35:39;32.50;93.10
37086;DHT22;23001;45.952;12.676;2023-07-20T14:41:29;32.30;92.50
37086;DHT22;23001;45.952;12.676;2023-07-20T14:44:09;32.40;93.40
37086;DHT22;23001;45.952;12.676;2023-07-20T14:46:50;32.30;92.00
37086;DHT22;23001;45.952;12.676;2023-07-20T14:49:33;32.40;92.30
37086;DHT22;23001;45.952;12.676;2023-07-20T14:52:14;32.40;92.90
37086;DHT22;23001;45.952;12.676;2023-07-20T14:54:48;32.60;92.60
37086;DHT22;23001;45.952;12.676;2023-07-20T14:57:32;32.60;92.30
37086;DHT22;23001;45.952;12.676;2023-07-20T15:00:03;32.50;92.80
37086;DHT22;23001;45.952;12.676;2023-07-20T15:02:36;32.50;92.20
37086;DHT22;23001;45.952;12.676;2023-07-20T15:05:22;32.50;93.00
37086;DHT22;23001;45.952;12.676;2023-07-20T15:07:51;32.50;92.60
37086;DHT22;23001;45.952;12.676;2023-07-20T15:10:29;32.50;93.50
37086;DHT22;23001;45.952;12.676;2023-07-20T15:12:57;32.60;93.60
37086;DHT22;23001;45.952;12.676;2023-07-20T15:15:26;32.40;92.30
37086;DHT22;23001;45.952;12.676;2023-07-20T15:17:52;32.40;92.20
37086;DHT22;23001;45.952;12.676;2023-07-20T15:20:19;32.40;93.20
37086;DHT22;23001;45.952;12.676;2023-07-20T15:22:45;32.30;92.70
37086;DHT22;23001;45.952;12.676;2023-07-20T15:25:16;32.20;91.80
37086;DHT22;23001;45.952;12.676;2023-07-20T15:27:49;32.20;92.30
37086;DHT22;23001;45.952;12.676;2023-07-20T15:30:17;32.30;93.10
37086;DHT22;23001;45.952;12.676;2023-07-20T15:32:47;32.30;93.60
37086;DHT22;23001;45.952;12.676;2023-07-20T15:35:16;32.40;93.10
37086;DHT22;23001;45.952;12.676;2023-07-20T15:37:41;32.30;93.70
37086;DHT22;23001;45.952;12.676;2023-07-20T15:40:15;32.40;92.20
37086;DHT22;23001;45.952;12.676;2023-07-20T15:42:41;32.40;92.40
37086;DHT22;23001;45.952;12.676;2023-07-20T15:45:07;32.30;93.00
37086;DHT22;23001;45.952;12.676;2023-07-20T15:47:33;32.30;93.10
37086;DHT22;23001;45.952;12.676;2023-07-20T15:50:02;32.30;93.10
37086;DHT22;23001;45.952;12.676;2023-07-20T15:52:32;32.30;92.10
37086;DHT22;23001;45.952;12.676;2023-07-20T15:54:57;32.20;92.20
37086;DHT22;23001;45.952;12.676;2023-07-20T15:57:23;32.30;93.20
37086;DHT22;23001;45.952;12.676;2023-07-20T15:59:49;32.30;93.80
37086;DHT22;23001;45.952;12.676;2023-07-20T16:02:14;32.20;94.00
37086;DHT22;23001;45.952;12.676;2023-07-20T16:04:40;32.30;93.60
37086;DHT22;23001;45.952;12.676;2023-07-20T16:07:09;32.30;94.10
37086;DHT22;23001;45.952;12.676;2023-07-20T16:09:34;32.20;94.20
37086;DHT22;23001;45.952;12.676;2023-07-20T16:12:02;32.20;94.10
37086;DHT22;23001;45.952;12.676;2023-07-20T16:14:28;32.20;95.00
37086;DHT22;23001;45.952;12.676;2023-07-20T16:16:58;32.10;94.90
37086;DHT22;23001;45.952;12.676;2023-07-20T16:19:23;32.10;95.20
37086;DHT22;23001;45.952;12.676;2023-07-20T16:21:49;32.00;94.90
37086;DHT22;23001;45.952;12.676;2023-07-20T16:24:17;31.90;95.20
37086;DHT22;23001;45.952;12.676;2023-07-20T16:26:51;31.90;95.60
37086;DHT22;23001;45.952;12.676;2023-07-20T16:29:22;31.90;95.60
37086;DHT22;23001;45.952;12.676;2023-07-20T16:31:53;31.90;94.80
37086;DHT22;23001;45.952;12.676;2023-07-20T16:34:19;31.70;94.90
37086;DHT22;23001;45.952;12.676;2023-07-20T16:36:51;31.80;94.80
37086;DHT22;23001;45.952;12.676;2023-07-20T16:39:22;31.80;95.00
37086;DHT22;23001;45.952;12.676;2023-07-20T16:41:50;31.80;95.60
37086;DHT22;23001;45.952;12.676;2023-07-20T16:44:18;31.60;95.70
37086;DHT22;23001;45.952;12.676;2023-07-20T16:46:44;31.50;95.50
37086;DHT22;23001;45.952;12.676;2023-07-20T16:49:10;31.50;95.50
37086;DHT22;23001;45.952;12.676;2023-07-20T16:51:37;31.50;95.00
37086;DHT22;23001;45.952;12.676;2023-07-20T16:54:06;31.50;95.20
37086;DHT22;23001;45.952;12.676;2023-07-20T16:59:11;31.30;94.80
37086;DHT22;23001;45.952;12.676;2023-07-20T17:01:38;31.30;95.70
37086;DHT22;23001;45.952;12.676;2023-07-20T17:04:07;31.40;95.90
37086;DHT22;23001;45.952;12.676;2023-07-20T17:09:27;31.10;96.70
37086;DHT22;23001;45.952;12.676;2023-07-20T17:11:57;31.10;96.60
37086;DHT22;23001;45.952;12.676;2023-07-20T17:14:25;31.00;97.10
37086;DHT22;23001;45.952;12.676;2023-07-20T17:16:51;30.90;97.20
37086;DHT22;23001;45.952;12.676;2023-07-20T17:19:36;30.80;96.90
37086;DHT22;23001;45.952;12.676;2023-07-20T17:22:01;30.70;97.50
37086;DHT22;23001;45.952;12.676;2023-07-20T17:24:40;30.60;97.50
37086;DHT22;23001;45.952;12.676;2023-07-20T17:27:17;30.60;97.50
37086;DHT22;23001;45.952;12.676;2023-07-20T17:29:43;30.50;97.20
37086;DHT22;23001;45.952;12.676;2023-07-20T17:32:09;30.40;97.10
37086;DHT22;23001;45.952;12.676;2023-07-20T17:34:35;30.40;97.70
37086;DHT22;23001;45.952;12.676;2023-07-20T17:37:03;30.40;97.90
37086;DHT22;23001;45.952;12.676;2023-07-20T17:39:33;30.30;97.40
37086;DHT22;23001;45.952;12.676;2023-07-20T17:42:07;30.30;97.50
37086;DHT22;23001;45.952;12.676;2023-07-20T17:44:40;30.20;98.00
37086;DHT22;23001;45.952;12.676;2023-07-20T17:47:18;30.10;98.40
37086;DHT22;23001;45.952;12.676;2023-07-20T17:49:46;30.10;98.50
37086;DHT22;23001;45.952;12.676;2023-07-20T17:52:13;30.10;98.50
37086;DHT22;23001;45.952;12.676;2023-07-20T17:55:00;30.00;98.60
37086;DHT22;23001;45.952;12.676;2023-07-20T17:57:51;29.90;98.60
37086;DHT22;23001;45.952;12.676;2023-07-20T18:00:20;29.80;99.00
37086;DHT22;23001;45.952;12.676;2023-07-20T18:33:21;29.20;99.90
37086;DHT22;23001;45.952;12.676;2023-07-20T18:36:05;29.10;99.90
37086;DHT22;23001;45.952;12.676;2023-07-20T18:38:54;29.10;99.90
37086;DHT22;23001;45.952;12.676;2023-07-20T18:41:21;29.00;99.90
37086;DHT22;23001;45.952;12.676;2023-07-20T18:43:48;28.90;99.90
37086;DHT22;23001;45.952;12.676;2023-07-20T18:46:23;28.90;99.90
37086;DHT22;23001;45.952;12.676;2023-07-20T18:49:38;28.80;99.90
37086;DHT22;23001;45.952;12.676;2023-07-20T18:52:39;28.70;99.90
37086;DHT22;23001;45.952;12.676;2023-07-20T18:55:14;28.70;99.90
37086;DHT22;23001;45.952;12.676;2023-07-20T19:10:08;28.30;99.90
37086;DHT22;23001;45.952;12.676;2023-07-20T20:37:04;27.20;99.90
37086;DHT22;23001;45.952;12.676;2023-07-20T20:49:19;27.00;99.90
37086;DHT22;23001;45.952;12.676;2023-07-20T20:51:54;27.00;99.90
37086;DHT22;23001;45.952;12.676;2023-07-20T20:54:20;27.00;99.90
37086;DHT22;23001;45.952;12.676;2023-07-20T20:56:59;27.00;99.90
37086;DHT22;23001;45.952;12.676;2023-07-20T20:59:48;26.90;99.90
37086;DHT22;23001;45.952;12.676;2023-07-20T21:02:15;27.00;99.90
37086;DHT22;23001;45.952;12.676;2023-07-20T21:04:47;26.90;99.90
37086;DHT22;23001;45.952;12.676;2023-07-20T21:07:16;26.80;99.90
37086;DHT22;23001;45.952;12.676;2023-07-20T21:09:47;26.70;99.90
37086;DHT22;23001;45.952;12.676;2023-07-20T21:12:16;26.70;99.90
37086;DHT22;23001;45.952;12.676;2023-07-20T21:14:42;26.70;99.90
37086;DHT22;23001;45.952;12.676;2023-07-20T21:17:08;26.70;99.90
37086;DHT22;23001;45.952;12.676;2023-07-20T21:19:33;26.70;99.90
37086;DHT22;23001;45.952;12.676;2023-07-20T21:21:59;26.70;99.90
37086;DHT22;23001;45.952;12.676;2023-07-20T21:24:25;26.60;99.90
37086;DHT22;23001;45.952;12.676;2023-07-20T21:26:51;26.60;99.90
37086;DHT22;23001;45.952;12.676;2023-07-20T21:29:16;26.60;99.90
37086;DHT22;23001;45.952;12.676;2023-07-20T21:31:45;26.60;99.90
37086;DHT22;23001;45.952;12.676;2023-07-20T21:34:13;26.60;99.90
37086;DHT22;23001;45.952;12.676;2023-07-20T21:36:42;26.60;99.90
37086;DHT22;23001;45.952;12.676;2023-07-20T21:39:11;26.50;99.90
37086;DHT22;23001;45.952;12.676;2023-07-20T21:41:36;26.50;99.90
37086;DHT22;23001;45.952;12.676;2023-07-20T21:44:06;26.40;99.90
37086;DHT22;23001;45.952;12.676;2023-07-20T21:46:32;26.30;99.90
37086;DHT22;23001;45.952;12.676;2023-07-20T21:48:59;26.30;99.90
37086;DHT22;23001;45.952;12.676;2023-07-20T21:51:24;26.30;99.90
37086;DHT22;23001;45.952;12.676;2023-07-20T21:53:50;26.20;99.90
37086;DHT22;23001;45.952;12.676;2023-07-20T21:56:16;26.20;99.90
37086;DHT22;23001;45.952;12.676;2023-07-20T21:58:42;26.20;99.90
37086;DHT22;23001;45.952;12.676;2023-07-20T22:01:10;26.10;99.90
37086;DHT22;23001;45.952;12.676;2023-07-20T22:03:36;26.10;99.90
37086;DHT22;23001;45.952;12.676;2023-07-20T22:06:02;26.20;99.90
37086;DHT22;23001;45.952;12.676;2023-07-20T22:08:28;26.10;99.90
37086;DHT22;23001;45.952;12.676;2023-07-20T22:10:56;26.00;99.90
37086;DHT22;23001;45.952;12.676;2023-07-20T22:13:24;26.00;99.90
37086;DHT22;23001;45.952;12.676;2023-07-20T22:15:49;26.00;99.90
37086;DHT22;23001;45.952;12.676;2023-07-20T22:18:18;25.90;99.90
37086;DHT22;23001;45.952;12.676;2023-07-20T22:20:44;25.90;99.90
37086;DHT22;23001;45.952;12.676;2023-07-20T22:23:13;25.90;99.90
37086;DHT22;23001;45.952;12.676;2023-07-20T22:25:38;25.90;99.90
37086;DHT22;23001;45.952;12.676;2023-07-20T22:28:11;25.90;99.90
37086;DHT22;23001;45.952;12.676;2023-07-20T22:30:37;26.00;99.90
37086;DHT22;23001;45.952;12.676;2023-07-20T22:33:06;26.00;99.90
37086;DHT22;23001;45.952;12.676;2023-07-20T22:35:32;26.00;99.90
37086;DHT22;23001;45.952;12.676;2023-07-20T22:37:58;26.00;99.90
37086;DHT22;23001;45.952;12.676;2023-07-20T22:40:23;25.90;99.90
37086;DHT22;23001;45.952;12.676;2023-07-20T22:42:49;25.90;99.90
37086;DHT22;23001;45.952;12.676;2023-07-20T22:45:15;25.70;99.90
37086;DHT22;23001;45.952;12.676;2023-07-20T22:47:44;25.70;99.90
37086;DHT22;23001;45.952;12.676;2023-07-20T22:50:14;25.70;99.90
37086;DHT22;23001;45.952;12.676;2023-07-20T22:52:43;25.90;99.90
37086;DHT22;23001;45.952;12.676;2023-07-20T22:57:51;25.70;99.90
37086;DHT22;23001;45.952;12.676;2023-07-20T23:00:20;25.70;99.90
37086;DHT22;23001;45.952;12.676;2023-07-20T23:02:59;25.60;99.90
37086;DHT22;23001;45.952;12.676;2023-07-20T23:08:33;25.70;99.90
37086;DHT22;23001;45.952;12.676;2023-07-20T23:11:24;25.70;99.90
37086;DHT22;23001;45.952;12.676;2023-07-20T23:13:56;25.80;99.90
37086;DHT22;23001;45.952;12.676;2023-07-20T23:16:39;25.70;99.90
37086;DHT22;23001;45.952;12.676;2023-07-20T23:19:11;25.60;99.90
37086;DHT22;23001;45.952;12.676;2023-07-20T23:21:42;25.70;99.90
37086;DHT22;23001;45.952;12.676;2023-07-20T23:24:23;25.60;99.90
37086;DHT22;23001;45.952;12.676;2023-07-20T23:26:55;25.60;99.90
37086;DHT22;23001;45.952;12.676;2023-07-20T23:29:26;25.70;99.90
37086;DHT22;23001;45.952;12.676;2023-07-20T23:31:55;25.60;99.90
37086;DHT22;23001;45.952;12.676;2023-07-20T23:34:24;25.60;99.90
37086;DHT22;23001;45.952;12.676;2023-07-20T23:40:02;25.50;99.90
37086;DHT22;23001;45.952;12.676;2023-07-20T23:42:58;25.50;99.90
37086;DHT22;23001;45.952;12.676;2023-07-20T23:45:30;25.40;99.90
37086;DHT22;23001;45.952;12.676;2023-07-20T23:48:09;25.40;99.90
37086;DHT22;23001;45.952;12.676;2023-07-20T23:50:55;25.40;99.90
37086;DHT22;23001;45.952;12.676;2023-07-20T23:53:24;25.30;99.90
37086;DHT22;23001;45.952;12.676;2023-07-20T23:56:06;25.40;99.90
37086;DHT22;23001;45.952;12.676;2023-07-20T23:59:21;25.40;99.90
